sensor_id;sensor_type;location;lat;lon;timestamp;P1;durP1;ratioP1;P2;durP2;ratioP2
16117;SDS011;8163;50.118;5.342;2022-10-31T00:00:05;13.57;;;5.68;;
16117;SDS011;8163;50.118;5.342;2022-10-31T00:02:33;11.60;;;5.75;;
16117;SDS011;8163;50.118;5.342;2022-10-31T00:05:00;14.75;;;5.00;;
16117;SDS011;8163;50.118;5.342;2022-10-31T00:07:27;14.05;;;5.78;;
16117;SDS011;8163;50.118;5.342;2022-10-31T00:09:54;10.88;;;4.78;;
16117;SDS011;8163;50.118;5.342;2022-10-31T00:12:21;14.90;;;5.38;;
16117;SDS011;8163;50.118;5.342;2022-10-31T00:14:49;12.30;;;5.35;;
16117;SDS011;8163;50.118;5.342;2022-10-31T00:17:16;12.60;;;6.22;;
16117;SDS011;8163;50.118;5.342;2022-10-31T00:19:43;11.77;;;5.45;;
16117;SDS011;8163;50.118;5.342;2022-10-31T00:22:10;10.57;;;5.07;;
16117;SDS011;8163;50.118;5.342;2022-10-31T00:24:37;10.98;;;4.95;;
16117;SDS011;8163;50.118;5.342;2022-10-31T00:27:03;12.80;;;4.43;;
16117;SDS011;8163;50.118;5.342;2022-10-31T00:29:30;7.75;;;4.82;;
16117;SDS011;8163;50.118;5.342;2022-10-31T00:32:00;11.80;;;4.75;;
16117;SDS011;8163;50.118;5.342;2022-10-31T00:34:26;11.00;;;4.97;;
16117;SDS011;8163;50.118;5.342;2022-10-31T00:36:53;8.52;;;5.05;;
16117;SDS011;8163;50.118;5.342;2022-10-31T00:39:20;13.18;;;5.30;;
16117;SDS011;8163;50.118;5.342;2022-10-31T00:41:47;15.68;;;5.35;;
16117;SDS011;8163;50.118;5.342;2022-10-31T00:44:14;12.25;;;5.57;;
16117;SDS011;8163;50.118;5.342;2022-10-31T00:46:41;12.10;;;5.05;;
16117;SDS011;8163;50.118;5.342;2022-10-31T00:49:09;10.80;;;5.45;;
16117;SDS011;8163;50.118;5.342;2022-10-31T00:51:36;8.50;;;5.07;;
16117;SDS011;8163;50.118;5.342;2022-10-31T00:54:03;9.57;;;4.97;;
16117;SDS011;8163;50.118;5.342;2022-10-31T00:56:30;12.15;;;6.07;;
16117;SDS011;8163;50.118;5.342;2022-10-31T00:58:57;14.73;;;5.70;;
16117;SDS011;8163;50.118;5.342;2022-10-31T01:01:24;12.13;;;5.72;;
16117;SDS011;8163;50.118;5.342;2022-10-31T01:03:51;7.55;;;5.03;;
16117;SDS011;8163;50.118;5.342;2022-10-31T01:06:19;13.32;;;6.13;;
16117;SDS011;8163;50.118;5.342;2022-10-31T01:08:46;11.55;;;6.28;;
16117;SDS011;8163;50.118;5.342;2022-10-31T01:11:15;11.55;;;5.38;;
16117;SDS011;8163;50.118;5.342;2022-10-31T01:13:44;13.63;;;7.20;;
16117;SDS011;8163;50.118;5.342;2022-10-31T01:16:12;14.30;;;6.47;;
16117;SDS011;8163;50.118;5.342;2022-10-31T01:18:41;12.40;;;5.93;;
16117;SDS011;8163;50.118;5.342;2022-10-31T01:21:09;12.63;;;6.47;;
16117;SDS011;8163;50.118;5.342;2022-10-31T01:23:38;10.65;;;6.43;;
16117;SDS011;8163;50.118;5.342;2022-10-31T01:26:07;11.38;;;6.65;;
16117;SDS011;8163;50.118;5.342;2022-10-31T01:28:37;17.58;;;7.25;;
16117;SDS011;8163;50.118;5.342;2022-10-31T01:31:06;11.15;;;7.45;;
16117;SDS011;8163;50.118;5.342;2022-10-31T01:33:34;11.68;;;7.80;;
16117;SDS011;8163;50.118;5.342;2022-10-31T01:36:10;11.45;;;7.88;;
16117;SDS011;8163;50.118;5.342;2022-10-31T01:38:40;11.63;;;7.60;;
16117;SDS011;8163;50.118;5.342;2022-10-31T01:41:06;10.32;;;6.95;;
16117;SDS011;8163;50.118;5.342;2022-10-31T01:43:45;13.95;;;7.32;;
16117;SDS011;8163;50.118;5.342;2022-10-31T01:46:14;20.48;;;7.72;;
16117;SDS011;8163;50.118;5.342;2022-10-31T01:48:43;18.83;;;7.90;;
16117;SDS011;8163;50.118;5.342;2022-10-31T01:51:11;12.07;;;7.32;;
16117;SDS011;8163;50.118;5.342;2022-10-31T01:53:42;13.05;;;7.57;;
16117;SDS011;8163;50.118;5.342;2022-10-31T01:56:11;11.40;;;7.38;;
16117;SDS011;8163;50.118;5.342;2022-10-31T01:58:42;9.27;;;7.03;;
16117;SDS011;8163;50.118;5.342;2022-10-31T02:01:11;12.68;;;7.78;;
16117;SDS011;8163;50.118;5.342;2022-10-31T02:03:40;12.45;;;6.82;;
16117;SDS011;8163;50.118;5.342;2022-10-31T02:06:07;12.35;;;6.93;;
16117;SDS011;8163;50.118;5.342;2022-10-31T02:08:48;10.95;;;7.35;;
16117;SDS011;8163;50.118;5.342;2022-10-31T02:11:16;20.67;;;7.20;;
16117;SDS011;8163;50.118;5.342;2022-10-31T02:13:43;15.20;;;7.10;;
16117;SDS011;8163;50.118;5.342;2022-10-31T02:16:10;17.42;;;6.60;;
16117;SDS011;8163;50.118;5.342;2022-10-31T02:18:37;16.90;;;6.68;;
16117;SDS011;8163;50.118;5.342;2022-10-31T02:21:07;11.20;;;6.18;;
16117;SDS011;8163;50.118;5.342;2022-10-31T02:23:55;11.45;;;6.85;;
16117;SDS011;8163;50.118;5.342;2022-10-31T02:26:44;12.73;;;6.60;;
16117;SDS011;8163;50.118;5.342;2022-10-31T02:35:38;11.65;;;5.47;;
16117;SDS011;8163;50.118;5.342;2022-10-31T02:38:14;9.05;;;5.20;;
16117;SDS011;8163;50.118;5.342;2022-10-31T02:40:52;15.43;;;5.38;;
16117;SDS011;8163;50.118;5.342;2022-10-31T02:43:29;9.80;;;4.55;;
16117;SDS011;8163;50.118;5.342;2022-10-31T02:46:03;7.25;;;3.97;;
16117;SDS011;8163;50.118;5.342;2022-10-31T02:48:36;8.20;;;4.80;;
16117;SDS011;8163;50.118;5.342;2022-10-31T02:51:06;8.93;;;5.57;;
16117;SDS011;8163;50.118;5.342;2022-10-31T02:53:34;8.95;;;5.07;;
16117;SDS011;8163;50.118;5.342;2022-10-31T02:56:04;7.80;;;4.43;;
16117;SDS011;8163;50.118;5.342;2022-10-31T02:58:34;6.32;;;4.60;;
16117;SDS011;8163;50.118;5.342;2022-10-31T03:01:10;9.52;;;5.32;;
16117;SDS011;8163;50.118;5.342;2022-10-31T03:06:56;6.38;;;4.78;;
16117;SDS011;8163;50.118;5.342;2022-10-31T03:09:32;10.40;;;5.68;;
16117;SDS011;8163;50.118;5.342;2022-10-31T03:12:07;9.25;;;5.82;;
16117;SDS011;8163;50.118;5.342;2022-10-31T03:14:38;10.38;;;5.47;;
16117;SDS011;8163;50.118;5.342;2022-10-31T03:17:11;7.57;;;4.53;;
16117;SDS011;8163;50.118;5.342;2022-10-31T03:19:47;8.48;;;4.53;;
16117;SDS011;8163;50.118;5.342;2022-10-31T03:22:16;7.70;;;5.18;;
16117;SDS011;8163;50.118;5.342;2022-10-31T03:24:47;12.10;;;5.85;;
16117;SDS011;8163;50.118;5.342;2022-10-31T03:27:17;10.98;;;5.68;;
16117;SDS011;8163;50.118;5.342;2022-10-31T03:29:46;9.65;;;4.32;;
16117;SDS011;8163;50.118;5.342;2022-10-31T03:32:16;6.07;;;3.83;;
16117;SDS011;8163;50.118;5.342;2022-10-31T03:34:47;4.90;;;3.78;;
16117;SDS011;8163;50.118;5.342;2022-10-31T03:37:17;6.93;;;3.47;;
16117;SDS011;8163;50.118;5.342;2022-10-31T03:39:46;6.50;;;4.30;;
16117;SDS011;8163;50.118;5.342;2022-10-31T03:42:18;8.48;;;4.20;;
16117;SDS011;8163;50.118;5.342;2022-10-31T03:44:51;6.55;;;3.45;;
16117;SDS011;8163;50.118;5.342;2022-10-31T03:47:22;8.30;;;3.85;;
16117;SDS011;8163;50.118;5.342;2022-10-31T03:49:51;4.20;;;3.67;;
16117;SDS011;8163;50.118;5.342;2022-10-31T03:52:19;9.70;;;4.18;;
16117;SDS011;8163;50.118;5.342;2022-10-31T03:54:53;6.60;;;3.28;;
16117;SDS011;8163;50.118;5.342;2022-10-31T03:57:24;5.85;;;4.13;;
16117;SDS011;8163;50.118;5.342;2022-10-31T03:59:54;5.75;;;4.10;;
16117;SDS011;8163;50.118;5.342;2022-10-31T04:02:26;8.15;;;4.40;;
16117;SDS011;8163;50.118;5.342;2022-10-31T04:04:58;5.60;;;4.72;;
16117;SDS011;8163;50.118;5.342;2022-10-31T04:07:27;8.15;;;3.97;;
16117;SDS011;8163;50.118;5.342;2022-10-31T04:09:56;7.20;;;4.25;;
16117;SDS011;8163;50.118;5.342;2022-10-31T04:12:26;7.72;;;4.78;;
16117;SDS011;8163;50.118;5.342;2022-10-31T04:14:57;7.75;;;5.13;;
16117;SDS011;8163;50.118;5.342;2022-10-31T04:17:26;6.57;;;4.63;;
16117;SDS011;8163;50.118;5.342;2022-10-31T04:19:55;9.38;;;5.30;;
16117;SDS011;8163;50.118;5.342;2022-10-31T04:22:26;11.15;;;5.43;;
16117;SDS011;8163;50.118;5.342;2022-10-31T04:24:56;7.15;;;5.03;;
16117;SDS011;8163;50.118;5.342;2022-10-31T04:27:23;7.43;;;4.45;;
16117;SDS011;8163;50.118;5.342;2022-10-31T04:29:50;10.27;;;4.82;;
16117;SDS011;8163;50.118;5.342;2022-10-31T04:32:16;10.80;;;5.82;;
16117;SDS011;8163;50.118;5.342;2022-10-31T04:34:43;10.15;;;5.47;;
16117;SDS011;8163;50.118;5.342;2022-10-31T04:37:10;9.30;;;5.40;;
16117;SDS011;8163;50.118;5.342;2022-10-31T04:39:38;11.68;;;5.13;;
16117;SDS011;8163;50.118;5.342;2022-10-31T04:42:05;10.70;;;5.40;;
16117;SDS011;8163;50.118;5.342;2022-10-31T04:44:32;10.73;;;5.00;;
16117;SDS011;8163;50.118;5.342;2022-10-31T04:46:59;8.07;;;5.00;;
16117;SDS011;8163;50.118;5.342;2022-10-31T04:49:26;11.82;;;5.38;;
16117;SDS011;8163;50.118;5.342;2022-10-31T04:51:53;11.10;;;5.38;;
16117;SDS011;8163;50.118;5.342;2022-10-31T04:54:20;9.20;;;5.10;;
16117;SDS011;8163;50.118;5.342;2022-10-31T04:56:48;7.95;;;4.70;;
16117;SDS011;8163;50.118;5.342;2022-10-31T04:59:15;7.80;;;5.05;;
16117;SDS011;8163;50.118;5.342;2022-10-31T05:01:42;5.43;;;4.50;;
16117;SDS011;8163;50.118;5.342;2022-10-31T05:04:09;8.00;;;4.70;;
16117;SDS011;8163;50.118;5.342;2022-10-31T05:06:36;6.03;;;4.78;;
16117;SDS011;8163;50.118;5.342;2022-10-31T05:09:02;8.05;;;4.95;;
16117;SDS011;8163;50.118;5.342;2022-10-31T05:11:30;11.23;;;5.20;;
16117;SDS011;8163;50.118;5.342;2022-10-31T05:13:58;10.15;;;5.40;;
16117;SDS011;8163;50.118;5.342;2022-10-31T05:16:25;8.75;;;5.32;;
16117;SDS011;8163;50.118;5.342;2022-10-31T05:18:52;13.45;;;5.40;;
16117;SDS011;8163;50.118;5.342;2022-10-31T05:21:18;8.82;;;4.95;;
16117;SDS011;8163;50.118;5.342;2022-10-31T05:23:45;17.48;;;6.03;;
16117;SDS011;8163;50.118;5.342;2022-10-31T05:26:12;9.02;;;4.93;;
16117;SDS011;8163;50.118;5.342;2022-10-31T05:28:39;9.25;;;5.65;;
16117;SDS011;8163;50.118;5.342;2022-10-31T05:31:07;8.65;;;5.03;;
16117;SDS011;8163;50.118;5.342;2022-10-31T05:33:35;7.25;;;5.30;;
16117;SDS011;8163;50.118;5.342;2022-10-31T05:36:03;9.07;;;4.85;;
16117;SDS011;8163;50.118;5.342;2022-10-31T05:38:30;10.20;;;5.95;;
16117;SDS011;8163;50.118;5.342;2022-10-31T05:40:57;17.92;;;5.35;;
16117;SDS011;8163;50.118;5.342;2022-10-31T05:43:25;12.07;;;5.30;;
16117;SDS011;8163;50.118;5.342;2022-10-31T05:45:53;10.25;;;4.82;;
16117;SDS011;8163;50.118;5.342;2022-10-31T05:48:21;7.90;;;5.25;;
16117;SDS011;8163;50.118;5.342;2022-10-31T05:50:49;8.30;;;5.70;;
16117;SDS011;8163;50.118;5.342;2022-10-31T05:53:17;8.60;;;4.78;;
16117;SDS011;8163;50.118;5.342;2022-10-31T05:55:45;8.32;;;5.20;;
16117;SDS011;8163;50.118;5.342;2022-10-31T05:58:12;13.63;;;9.30;;
16117;SDS011;8163;50.118;5.342;2022-10-31T06:00:39;17.10;;;8.45;;
16117;SDS011;8163;50.118;5.342;2022-10-31T06:03:07;11.93;;;5.70;;
16117;SDS011;8163;50.118;5.342;2022-10-31T06:05:36;17.23;;;8.93;;
16117;SDS011;8163;50.118;5.342;2022-10-31T06:08:03;18.65;;;8.85;;
16117;SDS011;8163;50.118;5.342;2022-10-31T06:10:31;18.75;;;9.00;;
16117;SDS011;8163;50.118;5.342;2022-10-31T06:12:58;18.63;;;8.93;;
16117;SDS011;8163;50.118;5.342;2022-10-31T06:15:25;19.95;;;9.05;;
16117;SDS011;8163;50.118;5.342;2022-10-31T06:17:59;26.85;;;9.27;;
16117;SDS011;8163;50.118;5.342;2022-10-31T06:20:28;16.20;;;8.95;;
16117;SDS011;8163;50.118;5.342;2022-10-31T06:22:56;19.88;;;8.82;;
16117;SDS011;8163;50.118;5.342;2022-10-31T06:25:23;19.48;;;8.45;;
16117;SDS011;8163;50.118;5.342;2022-10-31T06:27:50;15.60;;;8.30;;
16117;SDS011;8163;50.118;5.342;2022-10-31T06:30:17;14.48;;;8.48;;
16117;SDS011;8163;50.118;5.342;2022-10-31T06:32:44;15.10;;;7.65;;
16117;SDS011;8163;50.118;5.342;2022-10-31T06:35:11;15.35;;;8.02;;
16117;SDS011;8163;50.118;5.342;2022-10-31T06:37:38;11.75;;;8.05;;
16117;SDS011;8163;50.118;5.342;2022-10-31T06:40:07;9.85;;;6.63;;
16117;SDS011;8163;50.118;5.342;2022-10-31T06:42:34;13.40;;;6.93;;
16117;SDS011;8163;50.118;5.342;2022-10-31T06:45:02;15.10;;;6.72;;
16117;SDS011;8163;50.118;5.342;2022-10-31T06:47:30;10.40;;;6.03;;
16117;SDS011;8163;50.118;5.342;2022-10-31T06:49:57;13.07;;;6.05;;
16117;SDS011;8163;50.118;5.342;2022-10-31T06:52:24;14.05;;;6.43;;
16117;SDS011;8163;50.118;5.342;2022-10-31T06:54:52;10.07;;;5.93;;
16117;SDS011;8163;50.118;5.342;2022-10-31T06:57:21;15.88;;;7.22;;
16117;SDS011;8163;50.118;5.342;2022-10-31T06:59:50;12.73;;;5.82;;
16117;SDS011;8163;50.118;5.342;2022-10-31T07:02:17;12.35;;;6.05;;
16117;SDS011;8163;50.118;5.342;2022-10-31T07:04:44;13.68;;;6.88;;
16117;SDS011;8163;50.118;5.342;2022-10-31T07:07:11;10.65;;;5.47;;
16117;SDS011;8163;50.118;5.342;2022-10-31T07:09:39;17.15;;;6.53;;
16117;SDS011;8163;50.118;5.342;2022-10-31T07:12:06;13.10;;;6.03;;
16117;SDS011;8163;50.118;5.342;2022-10-31T07:14:35;14.02;;;5.85;;
16117;SDS011;8163;50.118;5.342;2022-10-31T07:17:02;12.40;;;5.45;;
16117;SDS011;8163;50.118;5.342;2022-10-31T07:19:28;10.90;;;6.32;;
16117;SDS011;8163;50.118;5.342;2022-10-31T07:21:56;15.13;;;5.75;;
16117;SDS011;8163;50.118;5.342;2022-10-31T07:24:23;15.00;;;5.72;;
16117;SDS011;8163;50.118;5.342;2022-10-31T07:26:50;14.43;;;5.50;;
16117;SDS011;8163;50.118;5.342;2022-10-31T07:29:17;15.77;;;5.07;;
16117;SDS011;8163;50.118;5.342;2022-10-31T07:31:46;8.82;;;5.45;;
16117;SDS011;8163;50.118;5.342;2022-10-31T07:34:13;11.30;;;5.22;;
16117;SDS011;8163;50.118;5.342;2022-10-31T07:36:40;14.20;;;5.30;;
16117;SDS011;8163;50.118;5.342;2022-10-31T07:39:07;20.70;;;6.95;;
16117;SDS011;8163;50.118;5.342;2022-10-31T07:41:34;17.35;;;5.95;;
16117;SDS011;8163;50.118;5.342;2022-10-31T07:44:02;10.45;;;5.22;;
16117;SDS011;8163;50.118;5.342;2022-10-31T07:46:29;17.70;;;5.72;;
16117;SDS011;8163;50.118;5.342;2022-10-31T07:48:58;11.18;;;5.20;;
16117;SDS011;8163;50.118;5.342;2022-10-31T07:51:25;14.85;;;5.22;;
16117;SDS011;8163;50.118;5.342;2022-10-31T07:53:52;10.90;;;5.18;;
16117;SDS011;8163;50.118;5.342;2022-10-31T07:56:18;11.70;;;5.18;;
16117;SDS011;8163;50.118;5.342;2022-10-31T07:58:45;15.50;;;5.18;;
16117;SDS011;8163;50.118;5.342;2022-10-31T08:01:12;15.18;;;5.57;;
16117;SDS011;8163;50.118;5.342;2022-10-31T08:03:39;11.23;;;4.65;;
16117;SDS011;8163;50.118;5.342;2022-10-31T08:06:08;17.30;;;5.00;;
16117;SDS011;8163;50.118;5.342;2022-10-31T08:08:35;14.10;;;5.03;;
16117;SDS011;8163;50.118;5.342;2022-10-31T08:11:02;10.70;;;5.28;;
16117;SDS011;8163;50.118;5.342;2022-10-31T08:13:29;8.25;;;4.82;;
16117;SDS011;8163;50.118;5.342;2022-10-31T08:15:57;10.60;;;5.30;;
16117;SDS011;8163;50.118;5.342;2022-10-31T08:18:28;12.75;;;4.68;;
16117;SDS011;8163;50.118;5.342;2022-10-31T08:20:56;10.77;;;4.97;;
16117;SDS011;8163;50.118;5.342;2022-10-31T08:23:24;9.55;;;4.53;;
16117;SDS011;8163;50.118;5.342;2022-10-31T08:25:51;8.10;;;4.28;;
16117;SDS011;8163;50.118;5.342;2022-10-31T08:28:18;15.40;;;4.85;;
16117;SDS011;8163;50.118;5.342;2022-10-31T08:30:45;6.38;;;4.30;;
16117;SDS011;8163;50.118;5.342;2022-10-31T08:33:15;9.20;;;4.15;;
16117;SDS011;8163;50.118;5.342;2022-10-31T08:35:43;11.40;;;4.72;;
16117;SDS011;8163;50.118;5.342;2022-10-31T08:38:10;9.45;;;3.90;;
16117;SDS011;8163;50.118;5.342;2022-10-31T08:40:39;8.93;;;3.95;;
16117;SDS011;8163;50.118;5.342;2022-10-31T08:43:08;11.38;;;4.70;;
16117;SDS011;8163;50.118;5.342;2022-10-31T08:45:38;11.13;;;4.90;;
16117;SDS011;8163;50.118;5.342;2022-10-31T08:48:05;10.27;;;4.20;;
16117;SDS011;8163;50.118;5.342;2022-10-31T08:50:35;10.20;;;4.07;;
16117;SDS011;8163;50.118;5.342;2022-10-31T08:53:03;8.23;;;4.22;;
16117;SDS011;8163;50.118;5.342;2022-10-31T08:55:32;8.88;;;3.78;;
16117;SDS011;8163;50.118;5.342;2022-10-31T08:58:03;14.93;;;3.95;;
16117;SDS011;8163;50.118;5.342;2022-10-31T09:00:31;13.30;;;4.72;;
16117;SDS011;8163;50.118;5.342;2022-10-31T09:02:58;8.57;;;3.75;;
16117;SDS011;8163;50.118;5.342;2022-10-31T09:05:26;14.68;;;4.57;;
16117;SDS011;8163;50.118;5.342;2022-10-31T09:07:55;17.30;;;4.78;;
16117;SDS011;8163;50.118;5.342;2022-10-31T09:10:23;9.13;;;4.13;;
16117;SDS011;8163;50.118;5.342;2022-10-31T09:12:54;14.10;;;4.38;;
16117;SDS011;8163;50.118;5.342;2022-10-31T09:15:24;10.93;;;4.50;;
16117;SDS011;8163;50.118;5.342;2022-10-31T09:17:51;11.18;;;3.67;;
16117;SDS011;8163;50.118;5.342;2022-10-31T09:20:18;11.63;;;4.28;;
16117;SDS011;8163;50.118;5.342;2022-10-31T09:22:46;5.03;;;3.92;;
16117;SDS011;8163;50.118;5.342;2022-10-31T09:25:13;10.43;;;3.97;;
16117;SDS011;8163;50.118;5.342;2022-10-31T09:27:40;9.27;;;4.30;;
16117;SDS011;8163;50.118;5.342;2022-10-31T09:30:08;9.88;;;4.00;;
16117;SDS011;8163;50.118;5.342;2022-10-31T09:32:37;10.15;;;4.90;;
16117;SDS011;8163;50.118;5.342;2022-10-31T09:35:04;7.95;;;3.75;;
16117;SDS011;8163;50.118;5.342;2022-10-31T09:37:31;8.43;;;3.70;;
16117;SDS011;8163;50.118;5.342;2022-10-31T09:39:58;11.80;;;4.18;;
16117;SDS011;8163;50.118;5.342;2022-10-31T09:42:29;9.13;;;4.85;;
16117;SDS011;8163;50.118;5.342;2022-10-31T09:45:12;14.80;;;4.13;;
16117;SDS011;8163;50.118;5.342;2022-10-31T09:47:50;5.75;;;4.22;;
16117;SDS011;8163;50.118;5.342;2022-10-31T09:50:28;12.10;;;4.05;;
16117;SDS011;8163;50.118;5.342;2022-10-31T09:53:03;12.30;;;4.40;;
16117;SDS011;8163;50.118;5.342;2022-10-31T09:55:36;11.35;;;3.72;;
16117;SDS011;8163;50.118;5.342;2022-10-31T09:58:07;16.40;;;4.35;;
16117;SDS011;8163;50.118;5.342;2022-10-31T10:00:41;14.07;;;4.22;;
16117;SDS011;8163;50.118;5.342;2022-10-31T10:03:12;12.20;;;3.75;;
16117;SDS011;8163;50.118;5.342;2022-10-31T10:05:51;10.35;;;4.55;;
16117;SDS011;8163;50.118;5.342;2022-10-31T10:08:25;6.75;;;3.50;;
16117;SDS011;8163;50.118;5.342;2022-10-31T10:10:59;10.95;;;3.72;;
16117;SDS011;8163;50.118;5.342;2022-10-31T10:13:41;10.20;;;3.97;;
16117;SDS011;8163;50.118;5.342;2022-10-31T10:16:22;7.75;;;3.72;;
16117;SDS011;8163;50.118;5.342;2022-10-31T10:19:03;5.18;;;3.58;;
16117;SDS011;8163;50.118;5.342;2022-10-31T10:21:41;12.07;;;3.90;;
16117;SDS011;8163;50.118;5.342;2022-10-31T10:24:17;10.00;;;4.03;;
16117;SDS011;8163;50.118;5.342;2022-10-31T10:27:11;13.38;;;4.13;;
16117;SDS011;8163;50.118;5.342;2022-10-31T10:29:44;9.05;;;3.53;;
16117;SDS011;8163;50.118;5.342;2022-10-31T10:32:17;7.70;;;3.50;;
16117;SDS011;8163;50.118;5.342;2022-10-31T10:34:51;9.52;;;3.78;;
16117;SDS011;8163;50.118;5.342;2022-10-31T10:37:22;6.28;;;3.40;;
16117;SDS011;8163;50.118;5.342;2022-10-31T10:39:55;9.65;;;3.72;;
16117;SDS011;8163;50.118;5.342;2022-10-31T10:42:26;10.15;;;3.67;;
16117;SDS011;8163;50.118;5.342;2022-10-31T10:45:14;9.05;;;3.63;;
16117;SDS011;8163;50.118;5.342;2022-10-31T10:48:05;9.77;;;3.80;;
16117;SDS011;8163;50.118;5.342;2022-10-31T10:50:37;10.35;;;3.95;;
16117;SDS011;8163;50.118;5.342;2022-10-31T10:53:09;10.40;;;3.75;;
16117;SDS011;8163;50.118;5.342;2022-10-31T10:55:57;9.02;;;3.30;;
16117;SDS011;8163;50.118;5.342;2022-10-31T10:58:28;11.88;;;3.85;;
16117;SDS011;8163;50.118;5.342;2022-10-31T11:00:55;8.80;;;3.55;;
16117;SDS011;8163;50.118;5.342;2022-10-31T11:03:22;9.93;;;3.72;;
16117;SDS011;8163;50.118;5.342;2022-10-31T11:05:51;9.00;;;3.88;;
16117;SDS011;8163;50.118;5.342;2022-10-31T11:08:26;13.07;;;3.47;;
16117;SDS011;8163;50.118;5.342;2022-10-31T11:10:58;6.05;;;4.30;;
16117;SDS011;8163;50.118;5.342;2022-10-31T11:13:27;8.13;;;3.60;;
16117;SDS011;8163;50.118;5.342;2022-10-31T11:15:57;7.38;;;3.47;;
16117;SDS011;8163;50.118;5.342;2022-10-31T11:18:27;12.50;;;4.45;;
16117;SDS011;8163;50.118;5.342;2022-10-31T11:20:57;5.50;;;3.40;;
16117;SDS011;8163;50.118;5.342;2022-10-31T11:23:27;8.73;;;3.63;;
16117;SDS011;8163;50.118;5.342;2022-10-31T11:25:55;8.98;;;3.72;;
16117;SDS011;8163;50.118;5.342;2022-10-31T11:28:24;8.18;;;3.65;;
16117;SDS011;8163;50.118;5.342;2022-10-31T11:30:55;6.47;;;3.30;;
16117;SDS011;8163;50.118;5.342;2022-10-31T11:35:55;6.20;;;3.38;;
16117;SDS011;8163;50.118;5.342;2022-10-31T11:38:27;5.43;;;2.80;;
16117;SDS011;8163;50.118;5.342;2022-10-31T11:41:03;7.38;;;3.28;;
16117;SDS011;8163;50.118;5.342;2022-10-31T11:43:35;8.27;;;3.88;;
16117;SDS011;8163;50.118;5.342;2022-10-31T11:46:08;13.68;;;3.80;;
16117;SDS011;8163;50.118;5.342;2022-10-31T11:48:38;11.30;;;4.40;;
16117;SDS011;8163;50.118;5.342;2022-10-31T11:51:06;7.53;;;3.38;;
16117;SDS011;8163;50.118;5.342;2022-10-31T11:53:35;8.70;;;3.97;;
16117;SDS011;8163;50.118;5.342;2022-10-31T11:56:04;7.00;;;3.53;;
16117;SDS011;8163;50.118;5.342;2022-10-31T11:58:35;9.38;;;3.75;;
16117;SDS011;8163;50.118;5.342;2022-10-31T12:01:04;5.53;;;4.00;;
16117;SDS011;8163;50.118;5.342;2022-10-31T12:03:38;7.75;;;3.90;;
16117;SDS011;8163;50.118;5.342;2022-10-31T12:06:18;7.22;;;3.17;;
16117;SDS011;8163;50.118;5.342;2022-10-31T12:08:49;7.32;;;3.70;;
16117;SDS011;8163;50.118;5.342;2022-10-31T12:11:27;8.40;;;3.45;;
16117;SDS011;8163;50.118;5.342;2022-10-31T12:14:09;6.43;;;3.47;;
16117;SDS011;8163;50.118;5.342;2022-10-31T12:16:46;7.85;;;3.28;;
16117;SDS011;8163;50.118;5.342;2022-10-31T12:19:22;4.18;;;3.08;;
16117;SDS011;8163;50.118;5.342;2022-10-31T12:22:06;12.43;;;3.58;;
16117;SDS011;8163;50.118;5.342;2022-10-31T12:24:44;4.13;;;2.95;;
16117;SDS011;8163;50.118;5.342;2022-10-31T12:27:24;11.68;;;4.13;;
16117;SDS011;8163;50.118;5.342;2022-10-31T12:30:02;13.32;;;4.15;;
16117;SDS011;8163;50.118;5.342;2022-10-31T12:32:46;8.65;;;3.60;;
16117;SDS011;8163;50.118;5.342;2022-10-31T12:35:31;6.60;;;3.40;;
16117;SDS011;8163;50.118;5.342;2022-10-31T12:38:15;7.07;;;3.25;;
16117;SDS011;8163;50.118;5.342;2022-10-31T12:40:59;8.02;;;3.30;;
16117;SDS011;8163;50.118;5.342;2022-10-31T12:43:40;12.27;;;3.70;;
16117;SDS011;8163;50.118;5.342;2022-10-31T12:46:14;8.88;;;3.90;;
16117;SDS011;8163;50.118;5.342;2022-10-31T12:51:46;10.15;;;3.40;;
16117;SDS011;8163;50.118;5.342;2022-10-31T12:54:28;10.18;;;3.67;;
16117;SDS011;8163;50.118;5.342;2022-10-31T12:57:21;8.55;;;3.80;;
16117;SDS011;8163;50.118;5.342;2022-10-31T12:59:51;10.25;;;3.45;;
16117;SDS011;8163;50.118;5.342;2022-10-31T13:02:24;5.68;;;3.70;;
16117;SDS011;8163;50.118;5.342;2022-10-31T13:04:55;6.63;;;3.55;;
16117;SDS011;8163;50.118;5.342;2022-10-31T13:07:25;10.85;;;3.95;;
16117;SDS011;8163;50.118;5.342;2022-10-31T13:10:00;9.15;;;3.60;;
16117;SDS011;8163;50.118;5.342;2022-10-31T13:12:37;9.90;;;3.60;;
16117;SDS011;8163;50.118;5.342;2022-10-31T13:15:11;9.70;;;3.45;;
16117;SDS011;8163;50.118;5.342;2022-10-31T13:17:43;10.13;;;4.15;;
16117;SDS011;8163;50.118;5.342;2022-10-31T13:20:19;10.85;;;3.33;;
16117;SDS011;8163;50.118;5.342;2022-10-31T13:22:54;6.15;;;3.33;;
16117;SDS011;8163;50.118;5.342;2022-10-31T13:25:30;9.23;;;3.80;;
16117;SDS011;8163;50.118;5.342;2022-10-31T13:28:02;8.77;;;3.80;;
16117;SDS011;8163;50.118;5.342;2022-10-31T13:30:36;10.85;;;3.55;;
16117;SDS011;8163;50.118;5.342;2022-10-31T13:33:09;6.15;;;3.03;;
16117;SDS011;8163;50.118;5.342;2022-10-31T13:35:41;7.72;;;3.20;;
16117;SDS011;8163;50.118;5.342;2022-10-31T13:38:15;13.20;;;3.53;;
16117;SDS011;8163;50.118;5.342;2022-10-31T13:40:50;7.18;;;3.20;;
16117;SDS011;8163;50.118;5.342;2022-10-31T13:43:28;10.10;;;3.60;;
16117;SDS011;8163;50.118;5.342;2022-10-31T13:46:00;8.63;;;4.15;;
16117;SDS011;8163;50.118;5.342;2022-10-31T13:48:34;7.88;;;3.10;;
16117;SDS011;8163;50.118;5.342;2022-10-31T13:51:07;7.47;;;3.05;;
16117;SDS011;8163;50.118;5.342;2022-10-31T13:53:44;8.68;;;3.75;;
16117;SDS011;8163;50.118;5.342;2022-10-31T13:56:29;8.38;;;3.42;;
16117;SDS011;8163;50.118;5.342;2022-10-31T13:58:59;8.93;;;3.72;;
16117;SDS011;8163;50.118;5.342;2022-10-31T14:01:46;9.20;;;3.63;;
16117;SDS011;8163;50.118;5.342;2022-10-31T14:04:16;8.35;;;3.28;;
16117;SDS011;8163;50.118;5.342;2022-10-31T14:06:47;17.13;;;4.30;;
16117;SDS011;8163;50.118;5.342;2022-10-31T14:09:33;10.60;;;3.17;;
16117;SDS011;8163;50.118;5.342;2022-10-31T14:12:04;8.85;;;3.53;;
16117;SDS011;8163;50.118;5.342;2022-10-31T14:14:42;7.65;;;3.30;;
16117;SDS011;8163;50.118;5.342;2022-10-31T14:17:18;7.97;;;3.20;;
16117;SDS011;8163;50.118;5.342;2022-10-31T14:20:00;8.82;;;3.80;;
16117;SDS011;8163;50.118;5.342;2022-10-31T14:22:51;14.23;;;3.65;;
16117;SDS011;8163;50.118;5.342;2022-10-31T14:25:25;9.38;;;3.83;;
16117;SDS011;8163;50.118;5.342;2022-10-31T14:27:57;11.68;;;3.70;;
16117;SDS011;8163;50.118;5.342;2022-10-31T14:30:26;8.43;;;3.40;;
16117;SDS011;8163;50.118;5.342;2022-10-31T14:32:56;7.90;;;3.90;;
16117;SDS011;8163;50.118;5.342;2022-10-31T14:35:27;7.47;;;3.25;;
16117;SDS011;8163;50.118;5.342;2022-10-31T14:41:08;11.50;;;4.00;;
16117;SDS011;8163;50.118;5.342;2022-10-31T14:44:04;9.07;;;3.90;;
16117;SDS011;8163;50.118;5.342;2022-10-31T14:46:57;10.52;;;4.43;;
16117;SDS011;8163;50.118;5.342;2022-10-31T14:49:41;8.98;;;3.40;;
16117;SDS011;8163;50.118;5.342;2022-10-31T14:52:19;12.35;;;3.55;;
16117;SDS011;8163;50.118;5.342;2022-10-31T14:54:48;8.98;;;4.03;;
16117;SDS011;8163;50.118;5.342;2022-10-31T14:57:19;8.05;;;4.10;;
16117;SDS011;8163;50.118;5.342;2022-10-31T15:37:16;7.75;;;3.38;;
16117;SDS011;8163;50.118;5.342;2022-10-31T15:39:44;11.45;;;4.38;;
16117;SDS011;8163;50.118;5.342;2022-10-31T15:42:19;10.68;;;4.10;;
16117;SDS011;8163;50.118;5.342;2022-10-31T15:44:48;11.82;;;4.43;;
16117;SDS011;8163;50.118;5.342;2022-10-31T15:47:19;7.30;;;3.88;;
16117;SDS011;8163;50.118;5.342;2022-10-31T15:49:50;10.57;;;4.32;;
16117;SDS011;8163;50.118;5.342;2022-10-31T15:52:21;7.40;;;3.70;;
16117;SDS011;8163;50.118;5.342;2022-10-31T15:54:54;7.00;;;3.28;;
16117;SDS011;8163;50.118;5.342;2022-10-31T15:57:24;8.13;;;4.13;;
16117;SDS011;8163;50.118;5.342;2022-10-31T15:59:52;5.55;;;3.35;;
16117;SDS011;8163;50.118;5.342;2022-10-31T16:02:21;13.63;;;4.32;;
16117;SDS011;8163;50.118;5.342;2022-10-31T16:04:53;9.13;;;4.38;;
16117;SDS011;8163;50.118;5.342;2022-10-31T16:07:22;7.55;;;3.40;;
16117;SDS011;8163;50.118;5.342;2022-10-31T16:09:54;13.23;;;4.03;;